createdAt,value
2022-10-22T00:06:17.969Z,45.00
2022-10-22T00:52:32.130Z,39.65
2022-10-22T00:56:21.919Z,41.03
2022-10-22T01:24:47.214Z,45.40
2022-10-22T01:43:44.562Z,46.00
2022-10-22T01:51:56.566Z,46.70
2022-10-22T01:56:01.736Z,48.25
2022-10-22T02:00:28.988Z,46.20
2022-10-22T02:53:35.309Z,53.15
2022-10-22T02:57:35.464Z,53.63
2022-10-22T03:00:59.704Z,48.05
2022-10-22T03:04:33.072Z,51.17
2022-10-22T03:08:11.399Z,49.60
2022-10-22T03:19:48.165Z,51.28
2022-10-22T04:16:42.145Z,53.83
2022-10-22T04:24:40.526Z,50.80
2022-10-22T04:28:17.277Z,51.50
2022-10-22T04:40:12.518Z,54.67
2022-10-22T04:43:55.072Z,56.15
2022-10-22T04:47:24.440Z,55.55
2022-10-22T04:50:52.149Z,56.75
2022-10-22T04:54:37.557Z,59.08
2022-10-22T04:58:11.195Z,57.35
2022-10-22T05:01:37.074Z,58.97
2022-10-22T05:04:49.573Z,60.90
2022-10-22T07:11:54.079Z,56.97
2022-10-22T07:15:19.532Z,56.70
2022-10-22T07:30:25.595Z,55.85
2022-10-22T07:34:02.970Z,53.50
2022-10-22T07:37:44.050Z,53.60
2022-10-22T07:50:09.510Z,54.38
2022-10-22T07:53:26.335Z,53.70
2022-10-22T07:56:56.667Z,55.38
2022-10-22T08:05:05.285Z,52.90
2022-10-22T08:38:09.496Z,56.22
2022-10-22T08:46:08.137Z,56.63
2022-10-22T08:51:10.278Z,56.47
2022-10-22T09:26:29.946Z,54.58
2022-10-22T10:50:03.786Z,11.10
2022-10-22T10:53:57.952Z,10.30
2022-10-22T10:58:17.923Z,11.18
2022-10-22T11:05:15.855Z,9.75
2022-10-22T11:08:46.780Z,9.18
2022-10-22T11:12:12.207Z,9.60
2022-10-22T11:15:56.810Z,10.18
2022-10-22T11:20:00.993Z,9.68
2022-10-22T11:24:21.909Z,8.52
2022-10-22T11:32:07.009Z,8.63
2022-10-22T11:35:30.315Z,9.27
2022-10-22T11:38:49.313Z,9.23
2022-10-22T11:42:35.851Z,9.80
2022-10-22T11:46:23.231Z,7.70
2022-10-22T11:50:17.949Z,8.00
2022-10-22T11:53:49.290Z,9.18
2022-10-22T15:08:45.347Z,8.43
2022-10-22T15:11:51.518Z,8.88
2022-10-22T15:14:49.479Z,8.20
2022-10-22T15:17:54.181Z,7.97
2022-10-22T15:21:05.724Z,9.55
2022-10-22T15:24:26.681Z,9.20
2022-10-22T15:27:35.598Z,7.75
2022-10-22T15:30:40.053Z,9.70
2022-10-22T15:34:01.709Z,9.32
2022-10-22T15:37:18.741Z,11.05
2022-10-22T15:40:24.174Z,7.70
2022-10-22T15:48:30.177Z,8.15
2022-10-22T16:05:59.949Z,6.97
2022-10-22T16:09:27.015Z,8.55
2022-10-22T16:20:59.245Z,10.10
2022-10-22T16:28:45.875Z,8.13
2022-10-22T16:31:55.479Z,7.63
2022-10-22T16:38:42.805Z,9.32
2022-10-22T16:42:05.728Z,9.90
2022-10-22T16:50:32.986Z,12.77
2022-10-22T16:58:25.830Z,15.88
2022-10-22T17:02:31.860Z,14.05
2022-10-22T17:06:44.976Z,17.73
2022-10-22T17:09:36.490Z,18.23
2022-10-22T17:12:56.063Z,19.98
2022-10-22T17:16:24.703Z,18.98
2022-10-22T17:21:02.295Z,19.17
2022-10-22T17:25:12.059Z,23.02
2022-10-22T17:28:24.151Z,21.13
2022-10-22T17:31:43.173Z,21.15
2022-10-22T18:10:44.483Z,21.63
2022-10-22T18:13:55.463Z,24.17
2022-10-22T18:17:11.020Z,26.85
2022-10-22T18:20:16.287Z,25.15
2022-10-22T18:23:24.879Z,24.08
2022-10-22T18:26:47.168Z,24.85
2022-10-22T18:29:57.423Z,26.70
2022-10-22T18:33:09.340Z,26.75
2022-10-22T18:36:21.390Z,26.95
2022-10-22T18:39:45.075Z,26.00
2022-10-22T18:43:17.176Z,28.25
2022-10-22T18:46:29.703Z,25.73
2022-10-22T18:49:57.790Z,25.50
2022-10-22T18:53:30.600Z,25.98
2022-10-22T18:57:14.700Z,26.30
2022-10-22T19:00:29.159Z,24.85
2022-10-22T19:03:41.489Z,26.48
2022-10-22T19:07:15.725Z,25.95
2022-10-22T19:10:23.037Z,26.80
2022-10-22T19:13:29.942Z,26.83
2022-10-22T19:16:37.617Z,26.40
2022-10-22T19:19:44.466Z,28.20
2022-10-22T19:22:50.249Z,28.45
2022-10-22T19:26:16.757Z,28.40
2022-10-22T19:29:31.500Z,27.58
2022-10-22T19:32:36.009Z,27.50
2022-10-22T19:35:51.016Z,26.13
2022-10-22T19:38:56.459Z,26.58
2022-10-22T19:42:01.928Z,24.50
2022-10-22T19:45:16.532Z,25.65
2022-10-22T19:48:27.130Z,25.95
2022-10-22T19:51:36.280Z,26.15
2022-10-22T19:54:48.928Z,25.75
2022-10-22T19:57:53.361Z,25.15
2022-10-22T20:00:57.633Z,23.92
2022-10-22T20:04:02.149Z,21.95
2022-10-22T20:07:06.749Z,21.42
2022-10-22T20:10:12.101Z,21.05
2022-10-22T20:13:16.622Z,22.00
2022-10-22T20:16:25.995Z,20.00
2022-10-22T20:19:30.471Z,19.60
2022-10-22T20:22:35.102Z,20.67
2022-10-22T20:26:03.333Z,21.08
2022-10-22T20:29:11.674Z,22.52
2022-10-22T20:32:24.426Z,23.02
2022-10-22T20:35:35.682Z,21.73
2022-10-22T20:38:43.454Z,20.77
2022-10-22T20:41:52.883Z,20.30
2022-10-22T20:45:00.322Z,21.65
2022-10-22T20:48:10.639Z,20.65
2022-10-22T20:51:17.424Z,20.33
2022-10-22T20:54:24.473Z,22.92
2022-10-22T20:57:31.978Z,22.13
2022-10-22T21:00:40.242Z,22.55
2022-10-22T21:03:52.897Z,20.25
2022-10-22T21:06:58.862Z,20.98
2022-10-22T21:10:04.561Z,21.95
2022-10-22T21:13:09.103Z,21.30
2022-10-22T21:16:17.807Z,22.45
2022-10-22T21:19:23.843Z,22.02
2022-10-22T21:22:28.783Z,22.40
2022-10-22T21:25:33.055Z,22.40
2022-10-22T21:28:37.877Z,23.33
2022-10-22T21:31:43.368Z,22.38
2022-10-22T21:34:48.045Z,24.25
2022-10-22T21:38:00.587Z,27.40
2022-10-22T21:41:15.726Z,28.55
2022-10-22T21:44:27.682Z,26.58
2022-10-22T21:47:32.198Z,27.23
2022-10-22T21:50:44.574Z,26.45
2022-10-22T21:53:53.721Z,29.67
2022-10-22T21:56:59.537Z,28.75
2022-10-22T22:00:07.617Z,28.08
2022-10-22T22:03:15.384Z,27.77
2022-10-22T22:06:28.300Z,26.83
2022-10-22T22:09:40.041Z,26.90
2022-10-22T22:12:45.116Z,27.02
2022-10-22T22:15:52.610Z,27.98
2022-10-22T22:22:12.390Z,28.55
2022-10-22T22:25:42.806Z,26.08
2022-10-22T22:28:52.232Z,25.08
2022-10-22T22:31:59.750Z,22.40
2022-10-22T22:35:07.259Z,22.30
2022-10-22T22:38:13.435Z,25.30
2022-10-22T22:41:19.055Z,24.60
2022-10-22T22:44:25.693Z,22.42
2022-10-22T22:47:33.091Z,22.77
2022-10-22T22:50:40.636Z,22.38
2022-10-22T22:53:48.615Z,24.58
2022-10-22T22:56:58.749Z,23.27
2022-10-22T23:00:05.248Z,24.80
2022-10-22T23:03:09.539Z,24.02
2022-10-22T23:06:15.133Z,25.35
2022-10-22T23:12:25.584Z,23.05
2022-10-22T23:15:30.124Z,26.00
2022-10-22T23:18:35.246Z,25.48
2022-10-22T23:21:41.892Z,23.77
2022-10-22T23:24:46.488Z,25.70
2022-10-22T23:27:57.695Z,25.02
2022-10-22T23:31:05.406Z,24.25
2022-10-22T23:37:25.250Z,21.88
2022-10-22T23:40:33.103Z,21.58
2022-10-22T23:43:38.475Z,20.77
2022-10-22T23:46:46.572Z,21.15
2022-10-22T23:49:50.920Z,20.77
2022-10-22T23:52:57.999Z,21.08
2022-10-22T23:56:08.760Z,20.58
2022-10-22T23:59:17.694Z,20.42
